createdAt,value
2022-10-03T00:02:55.325Z,24.00
2022-10-03T00:08:35.172Z,22.00
2022-10-03T00:14:16.554Z,21.08
2022-10-03T00:19:56.706Z,19.92
2022-10-03T00:24:59.161Z,20.52
2022-10-03T00:30:14.120Z,24.20
2022-10-03T00:35:22.738Z,22.05
2022-10-03T00:41:02.164Z,19.90
2022-10-03T00:46:22.619Z,18.65
2022-10-03T00:51:40.260Z,17.50
2022-10-03T00:57:14.361Z,19.55
2022-10-03T01:02:44.647Z,15.35
2022-10-03T01:08:05.780Z,16.10
2022-10-03T01:13:29.204Z,15.93
2022-10-03T01:18:40.669Z,16.85
2022-10-03T01:24:14.166Z,18.25
2022-10-03T01:29:44.864Z,18.50
2022-10-03T01:34:54.403Z,18.10
2022-10-03T01:40:18.412Z,19.38
2022-10-03T01:45:47.694Z,18.30
2022-10-03T01:51:11.808Z,20.08
2022-10-03T01:56:33.232Z,19.02
2022-10-03T02:02:01.657Z,20.77
2022-10-03T02:07:13.383Z,17.95
2022-10-03T02:12:28.159Z,18.00
2022-10-03T02:17:52.435Z,18.02
2022-10-03T02:22:59.836Z,18.45
2022-10-03T02:28:20.683Z,12.73
2022-10-03T02:34:22.110Z,16.63
2022-10-03T02:39:39.036Z,15.73
2022-10-03T02:45:15.744Z,18.83
2022-10-03T02:50:33.956Z,17.77
2022-10-03T02:56:06.196Z,17.52
2022-10-03T03:01:30.648Z,15.82
2022-10-03T03:06:48.092Z,16.92
2022-10-03T03:12:12.201Z,12.93
2022-10-03T03:17:41.615Z,13.18
2022-10-03T03:23:10.772Z,12.13
2022-10-03T03:28:52.493Z,13.95
2022-10-03T03:34:25.563Z,10.45
2022-10-03T03:40:07.062Z,11.02
2022-10-03T03:45:29.660Z,10.85
2022-10-03T03:50:35.183Z,11.75
2022-10-03T03:56:05.943Z,13.05
2022-10-03T04:01:20.765Z,11.43
2022-10-03T04:06:26.045Z,13.68
2022-10-03T04:11:53.349Z,11.07
2022-10-03T04:17:37.419Z,10.90
2022-10-03T04:22:51.909Z,10.63
2022-10-03T04:28:19.262Z,10.13
2022-10-03T04:33:54.981Z,12.02
2022-10-03T04:39:36.708Z,14.50
2022-10-03T04:45:04.890Z,14.05
2022-10-03T04:50:33.555Z,15.60
2022-10-03T04:55:54.877Z,17.05
2022-10-03T05:01:16.177Z,20.83
2022-10-03T05:06:49.628Z,20.40
2022-10-03T05:12:06.358Z,21.38
2022-10-03T05:17:37.413Z,17.42
2022-10-03T05:23:11.496Z,17.00
2022-10-03T05:28:23.957Z,14.57
2022-10-03T05:34:00.456Z,15.32
2022-10-03T05:39:22.960Z,12.50
2022-10-03T05:44:50.250Z,10.70
2022-10-03T05:50:28.312Z,11.57
2022-10-03T05:55:45.897Z,10.35
2022-10-03T06:01:00.418Z,9.52
2022-10-03T06:06:44.781Z,10.07
2022-10-03T06:11:59.186Z,10.57
2022-10-03T06:17:43.182Z,9.57
2022-10-03T06:23:08.616Z,6.90
2022-10-03T06:28:19.922Z,8.13
2022-10-03T06:33:52.998Z,7.55
2022-10-03T06:39:28.973Z,8.52
2022-10-03T06:44:37.395Z,7.22
2022-10-03T06:50:01.742Z,7.43
2022-10-03T06:55:49.184Z,9.40
2022-10-03T07:01:29.070Z,7.25
2022-10-03T07:06:41.715Z,6.70
2022-10-03T07:12:09.730Z,5.75
2022-10-03T07:17:29.737Z,5.70
2022-10-03T07:22:32.168Z,6.80
2022-10-03T07:27:50.978Z,5.68
2022-10-03T07:32:56.894Z,6.07
2022-10-03T07:38:47.263Z,6.30
2022-10-03T07:44:07.547Z,5.53
2022-10-03T07:49:47.347Z,5.32
2022-10-03T07:55:14.400Z,7.20
2022-10-03T08:00:50.297Z,4.82
2022-10-03T08:06:08.596Z,5.25
2022-10-03T08:11:30.247Z,4.90
2022-10-03T08:16:54.109Z,1.80
2022-10-03T08:22:14.933Z,1.80
2022-10-03T08:27:32.423Z,1.00
2022-10-03T08:32:53.747Z,1.27
2022-10-03T08:38:05.335Z,0.98
2022-10-03T08:43:46.585Z,1.10
2022-10-03T08:49:17.386Z,1.70
2022-10-03T08:54:41.323Z,1.58
2022-10-03T09:00:02.372Z,1.23
2022-10-03T09:05:11.022Z,1.67
2022-10-03T09:10:44.371Z,2.08
2022-10-03T09:16:24.441Z,1.52
2022-10-03T09:21:54.804Z,1.70
2022-10-03T09:27:27.033Z,1.40
2022-10-03T09:32:57.477Z,1.60
2022-10-03T09:37:59.970Z,1.73
2022-10-03T09:43:15.005Z,2.20
2022-10-03T09:48:29.705Z,2.25
2022-10-03T09:53:53.196Z,1.60
2022-10-03T09:59:21.802Z,1.40
2022-10-03T10:04:56.357Z,1.30
2022-10-03T10:10:50.995Z,1.20
2022-10-03T10:16:12.108Z,1.00
2022-10-03T10:21:47.008Z,1.57
2022-10-03T10:27:14.037Z,0.75
2022-10-03T10:32:35.160Z,1.00
2022-10-03T10:38:13.032Z,1.03
2022-10-03T10:43:37.569Z,1.02
2022-10-03T10:49:08.397Z,1.10
2022-10-03T10:54:32.696Z,1.20
2022-10-03T11:00:21.907Z,1.15
2022-10-03T11:05:29.809Z,1.00
2022-10-03T11:10:52.537Z,1.30
2022-10-03T11:16:27.790Z,0.90
2022-10-03T11:21:48.758Z,1.30
2022-10-03T11:27:12.440Z,1.00
2022-10-03T11:32:50.300Z,1.25
2022-10-03T11:37:58.777Z,1.20
2022-10-03T11:43:01.212Z,1.05
2022-10-03T11:48:32.267Z,1.33
2022-10-03T11:53:43.819Z,1.97
2022-10-03T11:58:59.291Z,1.45
2022-10-03T12:04:16.762Z,1.20
2022-10-03T12:09:48.193Z,1.13
2022-10-03T12:14:52.932Z,0.93
2022-10-03T12:20:15.806Z,1.17
2022-10-03T12:25:31.962Z,0.90
2022-10-03T12:31:27.146Z,0.70
2022-10-03T12:36:50.189Z,0.55
2022-10-03T12:42:17.672Z,0.73
2022-10-03T12:47:54.981Z,0.60
2022-10-03T12:53:17.676Z,0.60
2022-10-03T12:58:23.096Z,2.58
2022-10-03T13:04:03.575Z,0.70
2022-10-03T13:09:18.381Z,0.40
2022-10-03T13:14:31.385Z,0.60
2022-10-03T13:19:51.452Z,0.60
2022-10-03T13:25:12.280Z,0.60
2022-10-03T13:30:21.941Z,0.60
2022-10-03T13:36:00.192Z,0.55
2022-10-03T13:41:44.336Z,0.70
2022-10-03T13:47:02.595Z,0.70
2022-10-03T13:52:23.536Z,0.50
2022-10-03T13:57:55.443Z,0.70
2022-10-03T14:03:24.805Z,0.60
2022-10-03T14:09:01.345Z,0.52
2022-10-03T14:14:13.005Z,1.30
2022-10-03T14:19:31.013Z,0.75
2022-10-03T14:24:50.156Z,0.57
2022-10-03T14:30:04.564Z,0.65
2022-10-03T14:35:38.095Z,0.60
2022-10-03T14:40:51.212Z,0.60
2022-10-03T14:45:57.645Z,0.80
2022-10-03T14:51:08.968Z,0.68
2022-10-03T14:56:15.354Z,0.73
2022-10-03T15:01:21.851Z,0.93
2022-10-03T15:06:38.360Z,0.70
2022-10-03T15:12:00.495Z,0.60
2022-10-03T15:22:43.172Z,0.80
2022-10-03T15:27:50.741Z,8.02
2022-10-03T15:33:02.451Z,0.90
2022-10-03T15:38:14.432Z,0.52
2022-10-03T15:43:44.069Z,1.15
2022-10-03T15:48:54.293Z,0.90
2022-10-03T15:54:01.946Z,1.23
2022-10-03T15:59:22.289Z,0.60
2022-10-03T16:04:34.555Z,1.00
2022-10-03T16:10:12.742Z,0.90
2022-10-03T16:15:34.626Z,1.13
2022-10-03T16:20:43.254Z,0.95
2022-10-03T16:25:50.404Z,0.73
2022-10-03T16:31:13.478Z,1.10
2022-10-03T16:36:21.811Z,0.93
2022-10-03T16:41:27.295Z,1.60
2022-10-03T16:46:38.960Z,2.58
2022-10-03T16:51:46.259Z,1.20
2022-10-03T16:56:58.079Z,1.60
2022-10-03T17:02:13.719Z,1.70
2022-10-03T17:07:23.822Z,0.77
2022-10-03T17:12:46.020Z,0.70
2022-10-03T17:17:55.223Z,0.93
2022-10-03T17:23:07.288Z,0.77
2022-10-03T17:33:35.804Z,0.70
2022-10-03T17:38:53.444Z,0.70
2022-10-03T17:44:09.711Z,1.00
2022-10-03T17:49:50.631Z,0.90
2022-10-03T17:55:02.642Z,0.75
2022-10-03T18:00:21.525Z,0.63
2022-10-03T18:05:43.636Z,0.90
2022-10-03T18:16:02.335Z,0.70
2022-10-03T18:21:13.353Z,0.90
2022-10-03T18:26:35.197Z,1.20
2022-10-03T18:31:53.103Z,1.20
2022-10-03T18:36:56.876Z,0.95
2022-10-03T18:42:02.227Z,0.95
2022-10-03T18:47:36.012Z,1.10
2022-10-03T18:53:16.345Z,3.63
2022-10-03T18:58:25.424Z,1.08
2022-10-03T19:03:38.769Z,1.00
2022-10-03T19:08:53.236Z,1.30
2022-10-03T19:14:08.062Z,0.82
2022-10-03T19:19:27.166Z,1.05
2022-10-03T19:24:56.661Z,0.95
2022-10-03T19:29:58.237Z,1.10
2022-10-03T19:35:05.042Z,1.60
2022-10-03T19:40:49.082Z,1.20
2022-10-03T19:46:15.350Z,3.85
2022-10-03T19:51:25.449Z,1.48
2022-10-03T19:56:36.096Z,1.30
2022-10-03T20:01:46.947Z,1.25
2022-10-03T20:07:17.624Z,0.90
2022-10-03T20:12:20.858Z,1.20
2022-10-03T20:17:25.152Z,1.20
2022-10-03T20:22:36.586Z,1.20
2022-10-03T20:27:50.778Z,2.42
2022-10-03T20:32:56.601Z,1.88
2022-10-03T20:38:19.487Z,2.30
2022-10-03T20:43:28.326Z,1.20
2022-10-03T20:48:36.944Z,1.00
2022-10-03T20:53:42.765Z,1.00
2022-10-03T20:58:54.543Z,1.00
2022-10-03T21:04:38.850Z,0.98
2022-10-03T21:09:46.375Z,1.00
2022-10-03T21:14:56.364Z,0.80
2022-10-03T21:20:06.615Z,1.13
2022-10-03T21:25:38.299Z,0.75
2022-10-03T21:30:48.385Z,1.45
2022-10-03T21:35:52.873Z,1.25
2022-10-03T21:41:13.173Z,1.30
2022-10-03T21:46:44.769Z,1.33
2022-10-03T21:51:48.206Z,1.67
2022-10-03T21:57:03.901Z,1.40
2022-10-03T22:02:44.105Z,1.40
2022-10-03T22:07:46.883Z,1.40
2022-10-03T22:12:52.843Z,1.48
2022-10-03T22:18:02.524Z,1.95
2022-10-03T22:23:32.249Z,1.50
2022-10-03T22:28:47.159Z,1.58
2022-10-03T22:34:14.144Z,1.52
2022-10-03T22:39:19.651Z,1.55
2022-10-03T22:44:27.231Z,1.75
2022-10-03T22:49:37.930Z,1.45
2022-10-03T22:54:44.545Z,1.45
2022-10-03T22:59:55.090Z,1.35
2022-10-03T23:05:03.764Z,1.70
2022-10-03T23:10:21.848Z,1.70
2022-10-03T23:15:25.378Z,1.70
2022-10-03T23:20:51.192Z,1.60
2022-10-03T23:26:05.980Z,2.33
2022-10-03T23:31:30.111Z,1.70
2022-10-03T23:36:32.749Z,1.83
2022-10-03T23:41:44.436Z,1.75
2022-10-03T23:46:47.017Z,1.73
2022-10-03T23:51:50.001Z,1.80
2022-10-03T23:56:53.340Z,1.67
